CheckWX is a tool to help pilots better visualize weather data.  It is not intended as a substitute for an official pre-flight weather briefing.

10:09:05 UTC

EGHC TAF
Land's End Airport
Land's End, United Kingdom
TAF EGHC 260756Z 2609/2618 07012KT 9999 SCT006 PROB30 TEMPO 2609/2618 7000 BKN006

Jun-26@
09:00 UTC

Jun-26 @ 09:00 UTC

Jun-26@
18:00 UTC

Jun-26 @ 18:00 UTC

TAF EGHC 260756Z 2609/2618 07012KT 9999 SCT006
Wind
  • 070° at 12 KTS
Cloud Levels
  • Scattered at 600' AGL

Jun-26@
09:00 UTC

Jun-26 @ 09:00 UTC

Jun-26@
18:00 UTC

Jun-26 @ 18:00 UTC

PROB30 TEMPO 2609/2618 7000 BKN006

Temporary - 30% Likelihood

Temporary - 30% Likelihood during this time.

Cloud Levels
  • Broken at 600' AGL